createdAt,value
2019-05-26T00:00:54.976Z,99814.77
2019-05-26T00:05:02.941Z,99812.86
2019-05-26T00:09:11.693Z,99803.31
2019-05-26T00:13:19.125Z,99801.69
2019-05-26T00:17:27.151Z,99801.69
2019-05-26T00:21:35.869Z,99798.44
2019-05-26T00:25:43.255Z,99805.27
2019-05-26T00:29:51.598Z,99808.02
2019-05-26T00:33:59.250Z,99805.42
2019-05-26T00:38:08.114Z,99808.36
2019-05-26T00:42:16.813Z,99813.62
2019-05-26T00:46:25.616Z,99812.42
2019-05-26T00:50:34.186Z,99811.72
2019-05-26T00:54:42.420Z,99814.11
2019-05-26T00:58:49.800Z,99811.08
2019-05-26T01:02:57.768Z,99815.58
2019-05-26T01:07:05.441Z,99819.58
2019-05-26T01:11:13.792Z,99825.27
2019-05-26T01:15:21.785Z,99827.54
2019-05-26T01:19:29.670Z,99843.30
2019-05-26T01:23:37.541Z,99833.76
2019-05-26T01:27:47.237Z,99836.21
2019-05-26T01:31:54.602Z,99844.81
2019-05-26T01:36:03.536Z,99846.27
2019-05-26T01:40:11.313Z,99854.77
2019-05-26T01:44:19.258Z,99865.70
2019-05-26T01:48:27.588Z,99875.84
2019-05-26T01:52:35.249Z,99874.64
2019-05-26T01:56:43.616Z,99881.05
2019-05-26T02:00:51.988Z,99888.48
2019-05-26T02:05:00.491Z,99888.89
2019-05-26T02:09:09.356Z,99897.88
2019-05-26T02:13:16.850Z,99898.08
2019-05-26T02:17:24.827Z,99900.44
2019-05-26T02:21:33.171Z,99899.63
2019-05-26T02:25:40.997Z,99899.88
2019-05-26T02:29:49.338Z,99897.56
2019-05-26T02:33:57.965Z,99897.87
2019-05-26T02:38:05.355Z,99903.56
2019-05-26T02:42:13.707Z,99907.76
2019-05-26T02:46:21.523Z,99910.57
2019-05-26T02:50:29.622Z,99910.66
2019-05-26T02:54:37.963Z,99908.45
2019-05-26T02:58:45.660Z,99903.13
2019-05-26T03:02:54.296Z,99897.08
2019-05-26T03:07:03.895Z,99899.84
2019-05-26T03:11:13.202Z,99888.95
2019-05-26T03:15:21.591Z,99887.00
2019-05-26T03:19:29.773Z,99897.17
2019-05-26T03:23:39.542Z,99896.84
2019-05-26T03:27:47.916Z,99906.57
2019-05-26T03:31:56.129Z,99922.02
2019-05-26T03:36:04.086Z,99932.26
2019-05-26T03:40:12.007Z,99941.09
2019-05-26T03:44:19.981Z,99951.89
2019-05-26T03:48:27.355Z,99960.25
2019-05-26T03:52:35.694Z,99963.73
2019-05-26T03:56:44.045Z,99961.77
2019-05-26T04:00:51.563Z,99966.03
2019-05-26T04:04:59.586Z,99976.72
2019-05-26T04:09:08.809Z,99982.81
2019-05-26T04:13:16.700Z,99991.91
2019-05-26T04:17:24.568Z,99989.77
2019-05-26T04:21:32.282Z,99990.57
2019-05-26T04:25:40.644Z,99982.48
2019-05-26T04:29:48.640Z,99978.36
2019-05-26T04:33:56.129Z,99973.73
2019-05-26T04:38:04.108Z,99976.47
2019-05-26T04:42:11.594Z,99974.48
2019-05-26T04:46:19.948Z,99973.34
2019-05-26T04:50:28.285Z,99978.25
2019-05-26T04:54:35.691Z,99990.17
2019-05-26T04:58:46.564Z,99987.56
2019-05-26T05:02:53.196Z,100010.61
2019-05-26T05:07:01.546Z,100012.77
2019-05-26T05:11:09.157Z,100008.85
2019-05-26T05:15:16.645Z,100017.94
2019-05-26T05:19:24.993Z,100013.46
2019-05-26T05:23:32.476Z,100016.27
2019-05-26T05:27:40.826Z,100009.41
2019-05-26T05:31:49.177Z,100009.17
2019-05-26T05:35:56.776Z,100012.10
2019-05-26T05:40:05.619Z,100009.38
2019-05-26T05:44:13.106Z,100010.30
2019-05-26T05:48:21.461Z,100009.57
2019-05-26T05:52:29.809Z,100008.36
2019-05-26T05:56:37.197Z,100012.44
2019-05-26T06:00:45.536Z,100010.12
2019-05-26T06:04:54.017Z,100014.48
2019-05-26T06:09:01.432Z,100017.39
2019-05-26T06:13:09.320Z,100022.69
2019-05-26T06:17:16.804Z,100024.11
2019-05-26T06:21:25.402Z,100027.22
2019-05-26T06:25:33.351Z,100027.89
2019-05-26T06:29:55.970Z,100033.04
2019-05-26T06:33:51.440Z,100032.62
2019-05-26T06:37:58.837Z,100025.88
2019-05-26T06:42:07.343Z,100032.79
2019-05-26T06:46:15.344Z,100032.88
2019-05-26T06:50:22.942Z,100032.98
2019-05-26T06:54:30.835Z,100037.03
2019-05-26T06:58:38.317Z,100037.33
2019-05-26T07:02:46.297Z,100033.25
2019-05-26T07:06:54.272Z,100031.77
2019-05-26T07:11:01.755Z,100035.45
2019-05-26T07:15:13.116Z,100035.59
2019-05-26T07:19:21.197Z,100045.81
2019-05-26T07:23:28.684Z,100041.72
2019-05-26T07:27:37.112Z,100049.39
2019-05-26T07:31:44.683Z,100036.30
2019-05-26T07:35:53.097Z,100042.68
2019-05-26T07:40:01.156Z,100048.73
2019-05-26T07:44:08.632Z,100056.34
2019-05-26T07:48:17.082Z,100055.27
2019-05-26T07:52:25.061Z,100044.76
2019-05-26T07:56:32.676Z,100046.09
2019-05-26T08:00:41.099Z,100054.86
2019-05-26T08:04:49.668Z,100051.42
2019-05-26T08:08:58.113Z,100058.95
2019-05-26T08:13:06.097Z,100051.84
2019-05-26T08:17:14.527Z,100065.99
2019-05-26T08:21:22.160Z,100062.64
2019-05-26T08:25:30.231Z,100068.13
2019-05-26T08:29:38.683Z,100063.08
2019-05-26T08:33:47.160Z,100063.63
2019-05-26T08:37:55.216Z,100071.98
2019-05-26T08:42:03.791Z,100065.84
2019-05-26T08:46:11.324Z,100068.55
2019-05-26T08:50:20.252Z,100061.52
2019-05-26T08:54:27.776Z,100061.52
2019-05-26T08:58:35.345Z,100059.00
2019-05-26T09:02:43.807Z,100068.31
2019-05-26T09:06:51.270Z,100068.31
2019-05-26T09:10:59.337Z,100068.16
2019-05-26T09:15:08.177Z,100063.23
2019-05-26T09:19:15.639Z,100068.33
2019-05-26T09:23:24.602Z,100062.50
2019-05-26T09:27:32.178Z,100062.48
2019-05-26T09:31:40.611Z,100072.17
2019-05-26T09:35:49.243Z,100082.09
2019-05-26T09:39:57.140Z,100084.62
2019-05-26T09:44:06.002Z,100073.59
2019-05-26T09:48:14.440Z,100066.02
2019-05-26T09:52:22.017Z,100070.64
2019-05-26T09:56:30.140Z,100076.45
2019-05-26T10:00:37.812Z,100082.60
2019-05-26T10:04:46.249Z,100072.31
2019-05-26T10:08:54.679Z,100072.31
2019-05-26T10:13:02.247Z,100077.22
2019-05-26T10:17:10.318Z,100082.92
2019-05-26T10:21:17.905Z,100088.92
2019-05-26T10:25:26.963Z,100090.16
2019-05-26T10:29:34.737Z,100088.91
2019-05-26T10:33:43.203Z,100090.52
2019-05-26T10:37:53.864Z,100077.60
2019-05-26T10:42:01.838Z,100081.36
2019-05-26T10:46:09.899Z,100086.91
2019-05-26T10:50:18.669Z,100081.48
2019-05-26T10:54:26.727Z,100075.25
2019-05-26T10:58:35.202Z,100070.03
2019-05-26T11:02:43.661Z,100065.29
2019-05-26T11:06:51.352Z,100065.97
2019-05-26T11:10:59.778Z,100068.34
2019-05-26T11:15:08.445Z,100074.84
2019-05-26T11:19:16.873Z,100072.88
2019-05-26T11:23:24.340Z,100073.09
2019-05-26T11:27:32.780Z,100077.45
2019-05-26T11:31:40.409Z,100079.20
2019-05-26T11:35:48.834Z,100082.16
2019-05-26T11:39:57.752Z,100073.12
2019-05-26T11:44:17.629Z,100069.70
2019-05-26T11:48:16.463Z,100071.34
2019-05-26T11:52:24.550Z,100065.81
2019-05-26T11:56:32.981Z,100061.42
2019-05-26T12:00:41.610Z,100061.37
2019-05-26T12:04:49.157Z,100069.02
2019-05-26T12:08:57.610Z,100065.84
2019-05-26T12:13:05.394Z,100068.80
2019-05-26T12:17:13.426Z,100065.36
2019-05-26T12:21:21.879Z,100059.47
2019-05-26T12:25:33.338Z,100061.59
2019-05-26T12:29:40.973Z,100054.13
2019-05-26T12:33:49.036Z,100051.20
2019-05-26T12:37:56.507Z,100051.20
2019-05-26T12:42:05.523Z,100058.58
2019-05-26T12:46:12.966Z,100048.97
2019-05-26T12:50:21.136Z,100041.27
2019-05-26T12:54:29.604Z,100047.97
2019-05-26T12:58:38.022Z,100044.83
2019-05-26T13:02:46.215Z,100044.64
2019-05-26T13:06:54.722Z,100034.96
2019-05-26T13:11:02.185Z,100046.95
2019-05-26T13:15:11.390Z,100045.92
2019-05-26T13:19:19.822Z,100045.92
2019-05-26T13:23:28.293Z,100048.26
2019-05-26T13:27:36.361Z,100053.06
2019-05-26T13:31:45.910Z,100046.38
2019-05-26T13:35:54.413Z,100046.38
2019-05-26T13:40:03.500Z,100055.16
2019-05-26T13:44:11.611Z,100047.32
2019-05-26T13:48:19.718Z,100058.17
2019-05-26T13:52:28.159Z,100064.66
2019-05-26T13:56:35.879Z,100064.66
2019-05-26T14:00:44.087Z,100069.70
2019-05-26T14:04:52.261Z,100069.70
2019-05-26T14:09:02.201Z,100077.00
2019-05-26T14:13:10.723Z,100071.30
2019-05-26T14:17:19.513Z,100073.62
2019-05-26T14:21:27.074Z,100072.97
2019-05-26T14:25:35.231Z,100075.44
2019-05-26T14:29:43.209Z,100076.88
2019-05-26T14:33:51.572Z,100074.64
2019-05-26T14:38:00.320Z,100084.52
2019-05-26T14:42:08.751Z,100082.95
2019-05-26T14:46:18.178Z,100076.29
2019-05-26T14:50:26.824Z,100071.66
2019-05-26T14:54:35.082Z,100063.22
2019-05-26T14:58:43.524Z,100065.94
2019-05-26T15:02:51.977Z,100062.68
2019-05-26T15:07:00.055Z,100065.03
2019-05-26T15:11:08.474Z,100064.17
2019-05-26T15:15:16.936Z,100067.80
2019-05-26T15:19:24.758Z,100067.77
2019-05-26T15:23:33.551Z,100075.09
2019-05-26T15:27:41.294Z,100080.13
2019-05-26T15:31:49.250Z,100074.42
2019-05-26T15:35:57.693Z,100075.55
2019-05-26T15:40:06.365Z,100074.41
2019-05-26T15:44:14.418Z,100073.34
2019-05-26T15:48:22.100Z,100066.47
2019-05-26T15:52:30.553Z,100065.95
2019-05-26T15:56:38.518Z,100066.98
2019-05-26T16:00:47.140Z,100063.97
2019-05-26T16:04:58.686Z,100056.02
2019-05-26T16:09:06.365Z,100054.63
2019-05-26T16:13:15.010Z,100058.88
2019-05-26T16:17:23.430Z,100064.69
2019-05-26T16:21:31.002Z,100066.56
2019-05-26T16:25:39.363Z,100074.86
2019-05-26T16:29:46.900Z,100078.13
2019-05-26T16:33:55.002Z,100084.83
2019-05-26T16:38:02.911Z,100082.14
2019-05-26T16:42:10.565Z,100084.36
2019-05-26T16:46:20.290Z,100088.64
2019-05-26T16:50:29.112Z,100086.00
2019-05-26T16:54:36.811Z,100082.89
2019-05-26T16:58:47.478Z,100087.59
2019-05-26T17:02:57.323Z,100090.20
2019-05-26T17:07:06.884Z,100086.85
2019-05-26T17:11:14.493Z,100092.81
2019-05-26T17:15:22.650Z,100087.70
2019-05-26T17:19:30.675Z,100093.22
2019-05-26T17:23:38.448Z,100087.80
2019-05-26T17:27:47.198Z,100092.56
2019-05-26T17:31:54.988Z,100099.25
2019-05-26T17:36:03.224Z,100106.62
2019-05-26T17:40:11.080Z,100114.11
2019-05-26T17:44:19.398Z,100111.83
2019-05-26T17:48:27.151Z,100114.98
2019-05-26T17:52:34.944Z,100121.05
2019-05-26T17:56:43.588Z,100127.08
2019-05-26T18:00:52.399Z,100128.64
2019-05-26T18:05:00.034Z,100122.28
2019-05-26T18:09:08.782Z,100130.48
2019-05-26T18:13:16.434Z,100139.61
2019-05-26T18:17:24.643Z,100144.04
2019-05-26T18:21:33.492Z,100139.44
2019-05-26T18:25:41.230Z,100132.02
2019-05-26T18:29:49.807Z,100135.23
2019-05-26T18:33:57.543Z,100134.73
2019-05-26T18:38:06.357Z,100141.38
2019-05-26T18:42:14.101Z,100155.19
2019-05-26T18:46:22.221Z,100153.78
2019-05-26T18:50:29.809Z,100145.78
2019-05-26T18:54:38.430Z,100155.75
2019-05-26T18:58:47.166Z,100161.06
2019-05-26T19:02:56.073Z,100163.25
2019-05-26T19:07:04.820Z,100166.70
2019-05-26T19:11:12.922Z,100167.82
2019-05-26T19:15:21.713Z,100169.52
2019-05-26T19:19:30.371Z,100176.63
2019-05-26T19:23:39.022Z,100182.42
2019-05-26T19:27:46.629Z,100183.06
2019-05-26T19:31:54.309Z,100185.34
2019-05-26T19:36:02.451Z,100191.08
2019-05-26T19:40:11.294Z,100195.80
2019-05-26T19:44:19.027Z,100207.77
2019-05-26T19:48:36.492Z,100197.27
2019-05-26T19:52:37.751Z,100198.55
2019-05-26T19:56:46.315Z,100195.73
2019-05-26T20:00:54.008Z,100194.64
2019-05-26T20:05:02.658Z,100199.17
2019-05-26T20:09:12.646Z,100190.52
2019-05-26T20:13:20.529Z,100188.98
2019-05-26T20:17:29.204Z,100198.88
2019-05-26T20:21:36.865Z,100201.09
2019-05-26T20:25:45.392Z,100199.61
2019-05-26T20:29:53.028Z,100202.25
2019-05-26T20:34:00.680Z,100204.31
2019-05-26T20:38:10.817Z,100203.60
2019-05-26T20:42:17.973Z,100211.02
2019-05-26T20:46:26.639Z,100207.65
2019-05-26T20:50:34.830Z,100213.45
2019-05-26T20:54:42.460Z,100208.69
2019-05-26T20:58:50.529Z,100205.88
2019-05-26T21:02:59.037Z,100207.73
2019-05-26T21:07:07.915Z,100202.28
2019-05-26T21:11:16.037Z,100210.43
2019-05-26T21:15:23.659Z,100215.72
2019-05-26T21:19:32.234Z,100213.47
2019-05-26T21:23:40.051Z,100212.08
2019-05-26T21:27:48.636Z,100214.03
2019-05-26T21:31:56.699Z,100218.92
2019-05-26T21:36:04.426Z,100219.10
2019-05-26T21:40:13.459Z,100223.31
2019-05-26T21:44:21.101Z,100219.72
2019-05-26T21:48:30.568Z,100223.08
2019-05-26T21:52:39.144Z,100212.19
2019-05-26T21:56:46.783Z,100202.66
2019-05-26T22:00:55.377Z,100198.10
2019-05-26T22:05:03.709Z,100198.70
2019-05-26T22:09:11.068Z,100192.73
2019-05-26T22:13:19.434Z,100200.45
2019-05-26T22:17:27.992Z,100194.47
2019-05-26T22:21:36.649Z,100199.63
2019-05-26T22:25:45.287Z,100194.38
2019-05-26T22:29:54.478Z,100199.67
2019-05-26T22:34:03.107Z,100200.50
2019-05-26T22:38:11.470Z,100202.13
2019-05-26T22:42:20.192Z,100197.88
2019-05-26T22:46:28.382Z,100198.73
2019-05-26T22:50:36.952Z,100196.31
2019-05-26T22:54:45.173Z,100193.41
2019-05-26T22:58:53.798Z,100193.27
2019-05-26T23:03:02.088Z,100190.29
2019-05-26T23:07:10.813Z,100187.02
2019-05-26T23:11:19.616Z,100188.12
2019-05-26T23:15:28.424Z,100187.80
2019-05-26T23:19:37.090Z,100185.37
2019-05-26T23:23:45.372Z,100175.89
2019-05-26T23:27:55.342Z,100175.83
2019-05-26T23:32:04.051Z,100174.89
2019-05-26T23:36:12.731Z,100173.30
2019-05-26T23:40:21.384Z,100173.38
2019-05-26T23:44:29.172Z,100166.30
2019-05-26T23:48:37.763Z,100165.94
2019-05-26T23:52:45.947Z,100154.45
2019-05-26T23:56:54.679Z,100155.09
